sensor_id;sensor_type;location;lat;lon;timestamp;pressure;altitude;pressure_sealevel;temperature;humidity
28267;BME280;15525;45.568;5.448;2024-02-21T00:00:15;99196.53;;;9.44;55.46
28267;BME280;15525;45.568;5.448;2024-02-21T00:02:41;99197.59;;;9.43;55.53
28267;BME280;15525;45.568;5.448;2024-02-21T00:05:06;99205.03;;;9.41;55.51
28267;BME280;15525;45.568;5.448;2024-02-21T00:07:32;99214.13;;;9.40;55.77
28267;BME280;15525;45.568;5.448;2024-02-21T00:09:57;99215.97;;;9.39;55.10
28267;BME280;15525;45.568;5.448;2024-02-21T00:12:23;99199.47;;;9.31;55.30
28267;BME280;15525;45.568;5.448;2024-02-21T00:14:48;99197.03;;;9.18;55.53
28267;BME280;15525;45.568;5.448;2024-02-21T00:17:13;99196.09;;;9.24;55.77
28267;BME280;15525;45.568;5.448;2024-02-21T00:19:39;99205.03;;;9.29;55.84
28267;BME280;15525;45.568;5.448;2024-02-21T00:22:04;99196.31;;;9.22;55.39
28267;BME280;15525;45.568;5.448;2024-02-21T00:24:30;99179.94;;;9.19;55.52
28267;BME280;15525;45.568;5.448;2024-02-21T00:26:55;99190.75;;;9.24;56.03
28267;BME280;15525;45.568;5.448;2024-02-21T00:29:21;99178.34;;;9.29;56.05
28267;BME280;15525;45.568;5.448;2024-02-21T00:31:47;99173.44;;;9.26;55.73
28267;BME280;15525;45.568;5.448;2024-02-21T00:34:13;99166.59;;;9.19;55.66
28267;BME280;15525;45.568;5.448;2024-02-21T00:36:38;99158.47;;;9.14;55.69
28267;BME280;15525;45.568;5.448;2024-02-21T00:39:04;99173.00;;;9.18;55.80
28267;BME280;15525;45.568;5.448;2024-02-21T00:41:29;99170.53;;;9.16;56.24
28267;BME280;15525;45.568;5.448;2024-02-21T00:43:54;99162.19;;;9.13;55.94
28267;BME280;15525;45.568;5.448;2024-02-21T00:46:20;99162.97;;;9.13;55.99
28267;BME280;15525;45.568;5.448;2024-02-21T00:48:45;99148.47;;;9.09;56.22
28267;BME280;15525;45.568;5.448;2024-02-21T00:51:10;99159.25;;;9.14;55.89
28267;BME280;15525;45.568;5.448;2024-02-21T00:53:36;99156.13;;;9.17;56.47
28267;BME280;15525;45.568;5.448;2024-02-21T00:56:05;99152.31;;;9.13;56.29
28267;BME280;15525;45.568;5.448;2024-02-21T00:58:30;99155.69;;;9.20;55.85
28267;BME280;15525;45.568;5.448;2024-02-21T01:00:55;99151.03;;;9.16;55.96
28267;BME280;15525;45.568;5.448;2024-02-21T01:03:21;99141.84;;;9.12;56.39
28267;BME280;15525;45.568;5.448;2024-02-21T01:05:46;99143.13;;;9.09;55.90
28267;BME280;15525;45.568;5.448;2024-02-21T01:08:11;99148.94;;;9.06;56.08
28267;BME280;15525;45.568;5.448;2024-02-21T01:10:37;99138.50;;;9.05;56.54
28267;BME280;15525;45.568;5.448;2024-02-21T01:13:02;99138.59;;;9.10;56.41
28267;BME280;15525;45.568;5.448;2024-02-21T01:15:28;99120.97;;;9.09;56.07
28267;BME280;15525;45.568;5.448;2024-02-21T01:17:53;99117.25;;;9.10;56.01
28267;BME280;15525;45.568;5.448;2024-02-21T01:20:20;99116.78;;;9.13;56.59
28267;BME280;15525;45.568;5.448;2024-02-21T01:22:46;99112.00;;;9.15;56.50
28267;BME280;15525;45.568;5.448;2024-02-21T01:25:11;99104.13;;;9.08;56.43
28267;BME280;15525;45.568;5.448;2024-02-21T01:27:37;99117.59;;;9.13;56.03
28267;BME280;15525;45.568;5.448;2024-02-21T01:30:02;99113.63;;;9.16;56.45
28267;BME280;15525;45.568;5.448;2024-02-21T01:32:28;99104.47;;;9.12;56.32
28267;BME280;15525;45.568;5.448;2024-02-21T01:34:53;99114.34;;;9.00;56.19
28267;BME280;15525;45.568;5.448;2024-02-21T01:37:18;99103.19;;;8.91;56.51
28267;BME280;15525;45.568;5.448;2024-02-21T01:39:44;99102.38;;;8.91;56.82
28267;BME280;15525;45.568;5.448;2024-02-21T01:42:09;99105.63;;;8.93;56.84
28267;BME280;15525;45.568;5.448;2024-02-21T01:44:34;99113.63;;;9.04;56.84
28267;BME280;15525;45.568;5.448;2024-02-21T01:47:00;99109.34;;;9.03;56.59
28267;BME280;15525;45.568;5.448;2024-02-21T01:49:26;99104.84;;;9.04;56.72
28267;BME280;15525;45.568;5.448;2024-02-21T01:51:52;99104.94;;;9.09;56.72
28267;BME280;15525;45.568;5.448;2024-02-21T01:54:18;99103.19;;;9.14;56.52
28267;BME280;15525;45.568;5.448;2024-02-21T01:56:46;99105.16;;;9.19;56.24
28267;BME280;15525;45.568;5.448;2024-02-21T01:59:13;99093.53;;;9.13;56.68
28267;BME280;15525;45.568;5.448;2024-02-21T02:01:39;99088.44;;;9.12;56.21
28267;BME280;15525;45.568;5.448;2024-02-21T02:04:05;99098.66;;;9.15;55.99
28267;BME280;15525;45.568;5.448;2024-02-21T02:06:31;99098.66;;;9.15;56.47
28267;BME280;15525;45.568;5.448;2024-02-21T02:08:57;99100.16;;;9.11;56.33
28267;BME280;15525;45.568;5.448;2024-02-21T02:11:22;99097.72;;;9.09;56.30
28267;BME280;15525;45.568;5.448;2024-02-21T02:13:48;99093.66;;;9.07;56.40
28267;BME280;15525;45.568;5.448;2024-02-21T02:16:13;99094.25;;;9.09;56.49
28267;BME280;15525;45.568;5.448;2024-02-21T02:18:39;99091.59;;;9.09;56.71
28267;BME280;15525;45.568;5.448;2024-02-21T02:21:10;99089.97;;;9.08;56.71
28267;BME280;15525;45.568;5.448;2024-02-21T02:23:39;99089.81;;;9.14;56.53
28267;BME280;15525;45.568;5.448;2024-02-21T02:26:05;99090.88;;;9.13;56.36
28267;BME280;15525;45.568;5.448;2024-02-21T02:28:32;99086.03;;;9.10;56.59
28267;BME280;15525;45.568;5.448;2024-02-21T02:30:57;99085.88;;;9.17;56.27
28267;BME280;15525;45.568;5.448;2024-02-21T02:33:23;99068.47;;;9.03;56.67
28267;BME280;15525;45.568;5.448;2024-02-21T02:35:48;99077.06;;;9.05;56.69
28267;BME280;15525;45.568;5.448;2024-02-21T02:38:14;99068.25;;;9.04;56.71
28267;BME280;15525;45.568;5.448;2024-02-21T02:40:41;99068.13;;;8.99;56.63
28267;BME280;15525;45.568;5.448;2024-02-21T02:43:07;99069.06;;;8.93;56.75
28267;BME280;15525;45.568;5.448;2024-02-21T02:45:32;99070.81;;;8.88;56.70
28267;BME280;15525;45.568;5.448;2024-02-21T02:47:58;99074.53;;;8.87;56.64
28267;BME280;15525;45.568;5.448;2024-02-21T02:50:24;99070.47;;;8.84;56.81
28267;BME280;15525;45.568;5.448;2024-02-21T02:52:50;99062.25;;;8.86;56.90
28267;BME280;15525;45.568;5.448;2024-02-21T02:55:15;99062.69;;;8.83;56.84
28267;BME280;15525;45.568;5.448;2024-02-21T02:57:41;99044.47;;;8.68;56.94
28267;BME280;15525;45.568;5.448;2024-02-21T03:00:08;99050.72;;;8.74;56.92
28267;BME280;15525;45.568;5.448;2024-02-21T03:02:35;99038.56;;;8.78;56.98
28267;BME280;15525;45.568;5.448;2024-02-21T03:05:00;99029.38;;;8.62;57.08
28267;BME280;15525;45.568;5.448;2024-02-21T03:07:26;99021.59;;;8.61;57.52
28267;BME280;15525;45.568;5.448;2024-02-21T03:09:51;99013.84;;;8.59;57.69
28267;BME280;15525;45.568;5.448;2024-02-21T03:12:18;99005.72;;;8.54;57.79
28267;BME280;15525;45.568;5.448;2024-02-21T03:14:50;99011.06;;;8.54;57.53
28267;BME280;15525;45.568;5.448;2024-02-21T03:17:15;99006.41;;;8.61;57.21
28267;BME280;15525;45.568;5.448;2024-02-21T03:19:41;98997.47;;;8.56;57.44
28267;BME280;15525;45.568;5.448;2024-02-21T03:22:06;98988.53;;;8.50;57.47
28267;BME280;15525;45.568;5.448;2024-02-21T03:24:32;98998.41;;;8.50;57.73
28267;BME280;15525;45.568;5.448;2024-02-21T03:26:58;98992.03;;;8.62;57.04
28267;BME280;15525;45.568;5.448;2024-02-21T03:29:24;98991.47;;;8.72;57.45
28267;BME280;15525;45.568;5.448;2024-02-21T03:31:50;98984.47;;;8.71;57.28
28267;BME280;15525;45.568;5.448;2024-02-21T03:34:15;98971.94;;;8.71;57.24
28267;BME280;15525;45.568;5.448;2024-02-21T03:36:40;98971.72;;;8.73;57.36
28267;BME280;15525;45.568;5.448;2024-02-21T03:39:06;98978.00;;;8.67;56.99
28267;BME280;15525;45.568;5.448;2024-02-21T03:41:33;98965.69;;;8.66;56.70
28267;BME280;15525;45.568;5.448;2024-02-21T03:43:58;98968.00;;;8.74;56.55
28267;BME280;15525;45.568;5.448;2024-02-21T03:46:24;98965.22;;;8.69;56.61
28267;BME280;15525;45.568;5.448;2024-02-21T03:48:50;98966.84;;;8.70;57.15
28267;BME280;15525;45.568;5.448;2024-02-21T03:51:15;98976.34;;;8.66;56.95
28267;BME280;15525;45.568;5.448;2024-02-21T03:53:41;98963.28;;;8.64;57.27
28267;BME280;15525;45.568;5.448;2024-02-21T03:56:06;98968.59;;;8.64;57.16
28267;BME280;15525;45.568;5.448;2024-02-21T03:58:32;98957.34;;;8.62;57.10
28267;BME280;15525;45.568;5.448;2024-02-21T04:01:01;98959.19;;;8.62;57.04
28267;BME280;15525;45.568;5.448;2024-02-21T04:03:27;98947.25;;;8.64;56.96
28267;BME280;15525;45.568;5.448;2024-02-21T04:05:52;98955.72;;;8.61;57.03
28267;BME280;15525;45.568;5.448;2024-02-21T04:08:18;98956.28;;;8.52;57.32
28267;BME280;15525;45.568;5.448;2024-02-21T04:10:43;98952.97;;;8.45;57.60
28267;BME280;15525;45.568;5.448;2024-02-21T04:13:09;98949.34;;;8.51;57.61
28267;BME280;15525;45.568;5.448;2024-02-21T04:15:34;98956.91;;;8.54;57.86
28267;BME280;15525;45.568;5.448;2024-02-21T04:18:00;98952.72;;;8.58;57.32
28267;BME280;15525;45.568;5.448;2024-02-21T04:20:25;98941.91;;;8.53;57.59
28267;BME280;15525;45.568;5.448;2024-02-21T04:22:51;98948.19;;;8.58;57.11
28267;BME280;15525;45.568;5.448;2024-02-21T04:25:16;98942.03;;;8.58;57.25
28267;BME280;15525;45.568;5.448;2024-02-21T04:27:42;98946.09;;;8.60;57.63
28267;BME280;15525;45.568;5.448;2024-02-21T04:30:07;98942.72;;;8.53;57.85
28267;BME280;15525;45.568;5.448;2024-02-21T04:32:33;98934.03;;;8.58;57.51
28267;BME280;15525;45.568;5.448;2024-02-21T04:34:58;98927.66;;;8.59;57.89
28267;BME280;15525;45.568;5.448;2024-02-21T04:37:24;98934.59;;;8.60;57.87
28267;BME280;15525;45.568;5.448;2024-02-21T04:39:50;98928.09;;;8.56;57.29
28267;BME280;15525;45.568;5.448;2024-02-21T04:42:15;98923.47;;;8.63;57.71
28267;BME280;15525;45.568;5.448;2024-02-21T04:44:41;98910.56;;;8.71;57.61
28267;BME280;15525;45.568;5.448;2024-02-21T04:47:07;98920.41;;;8.71;57.21
28267;BME280;15525;45.568;5.448;2024-02-21T04:49:32;98916.13;;;8.70;57.23
28267;BME280;15525;45.568;5.448;2024-02-21T04:51:58;98908.72;;;8.72;57.66
28267;BME280;15525;45.568;5.448;2024-02-21T04:54:23;98909.75;;;8.71;57.66
28267;BME280;15525;45.568;5.448;2024-02-21T04:56:49;98902.47;;;8.66;57.30
28267;BME280;15525;45.568;5.448;2024-02-21T04:59:14;98910.78;;;8.70;57.58
28267;BME280;15525;45.568;5.448;2024-02-21T05:01:39;98909.28;;;8.74;57.82
28267;BME280;15525;45.568;5.448;2024-02-21T05:04:05;98903.00;;;8.80;58.06
28267;BME280;15525;45.568;5.448;2024-02-21T05:06:30;98908.34;;;8.80;57.71
28267;BME280;15525;45.568;5.448;2024-02-21T05:08:56;98887.81;;;8.80;57.64
28267;BME280;15525;45.568;5.448;2024-02-21T05:11:23;98896.63;;;8.81;57.39
28267;BME280;15525;45.568;5.448;2024-02-21T05:13:48;98900.09;;;8.81;57.84
28267;BME280;15525;45.568;5.448;2024-02-21T05:16:13;98895.38;;;8.72;58.11
28267;BME280;15525;45.568;5.448;2024-02-21T05:18:40;98899.56;;;8.68;57.69
28267;BME280;15525;45.568;5.448;2024-02-21T05:21:06;98897.44;;;8.70;58.07
28267;BME280;15525;45.568;5.448;2024-02-21T05:23:31;98902.91;;;8.75;57.83
28267;BME280;15525;45.568;5.448;2024-02-21T05:25:57;98894.78;;;8.70;57.48
28267;BME280;15525;45.568;5.448;2024-02-21T05:28:22;98912.66;;;8.69;58.21
28267;BME280;15525;45.568;5.448;2024-02-21T05:30:47;98904.03;;;8.79;57.80
28267;BME280;15525;45.568;5.448;2024-02-21T05:33:13;98905.66;;;8.80;57.86
28267;BME280;15525;45.568;5.448;2024-02-21T05:35:46;98905.44;;;8.81;58.13
28267;BME280;15525;45.568;5.448;2024-02-21T05:38:11;98899.31;;;8.81;58.10
28267;BME280;15525;45.568;5.448;2024-02-21T05:40:37;98911.59;;;8.82;57.65
28267;BME280;15525;45.568;5.448;2024-02-21T05:43:02;98901.47;;;8.84;57.67
28267;BME280;15525;45.568;5.448;2024-02-21T05:45:28;98914.13;;;8.88;57.52
28267;BME280;15525;45.568;5.448;2024-02-21T05:47:53;98904.00;;;8.90;57.30
28267;BME280;15525;45.568;5.448;2024-02-21T05:50:18;98906.59;;;8.85;57.65
28267;BME280;15525;45.568;5.448;2024-02-21T05:52:44;98912.66;;;8.81;58.00
28267;BME280;15525;45.568;5.448;2024-02-21T05:55:09;98920.16;;;8.84;57.68
28267;BME280;15525;45.568;5.448;2024-02-21T05:57:35;98918.00;;;8.81;58.01
28267;BME280;15525;45.568;5.448;2024-02-21T06:00:04;98920.28;;;8.77;58.35
28267;BME280;15525;45.568;5.448;2024-02-21T06:02:30;98923.94;;;8.60;57.88
28267;BME280;15525;45.568;5.448;2024-02-21T06:04:55;98915.59;;;8.56;58.14
28267;BME280;15525;45.568;5.448;2024-02-21T06:07:21;98922.66;;;8.62;58.40
28267;BME280;15525;45.568;5.448;2024-02-21T06:09:46;98927.66;;;8.59;58.50
28267;BME280;15525;45.568;5.448;2024-02-21T06:12:12;98932.88;;;8.65;58.45
28267;BME280;15525;45.568;5.448;2024-02-21T06:14:37;98929.47;;;8.70;57.91
28267;BME280;15525;45.568;5.448;2024-02-21T06:17:03;98934.56;;;8.83;57.71
28267;BME280;15525;45.568;5.448;2024-02-21T06:19:28;98934.00;;;8.81;57.73
28267;BME280;15525;45.568;5.448;2024-02-21T06:21:53;98931.88;;;8.83;57.73
28267;BME280;15525;45.568;5.448;2024-02-21T06:24:19;98934.34;;;8.84;57.51
28267;BME280;15525;45.568;5.448;2024-02-21T06:26:44;98937.69;;;8.80;57.81
28267;BME280;15525;45.568;5.448;2024-02-21T06:29:11;98935.84;;;8.80;57.71
28267;BME280;15525;45.568;5.448;2024-02-21T06:31:36;98935.84;;;8.80;58.09
28267;BME280;15525;45.568;5.448;2024-02-21T06:34:02;98942.22;;;8.79;58.43
28267;BME280;15525;45.568;5.448;2024-02-21T06:36:27;98946.06;;;8.83;58.13
28267;BME280;15525;45.568;5.448;2024-02-21T06:38:53;98952.69;;;8.81;58.17
28267;BME280;15525;45.568;5.448;2024-02-21T06:41:18;98945.25;;;8.83;57.77
28267;BME280;15525;45.568;5.448;2024-02-21T06:43:45;98944.28;;;8.89;58.16
28267;BME280;15525;45.568;5.448;2024-02-21T06:46:11;98945.53;;;8.98;58.03
28267;BME280;15525;45.568;5.448;2024-02-21T06:48:37;98932.31;;;8.91;57.56
28267;BME280;15525;45.568;5.448;2024-02-21T06:51:03;98944.28;;;8.89;57.75
28267;BME280;15525;45.568;5.448;2024-02-21T06:53:29;98947.78;;;8.89;57.79
28267;BME280;15525;45.568;5.448;2024-02-21T06:55:54;98948.47;;;8.96;58.08
28267;BME280;15525;45.568;5.448;2024-02-21T06:58:19;98943.22;;;9.01;58.16
28267;BME280;15525;45.568;5.448;2024-02-21T07:00:45;98948.22;;;8.98;57.81
28267;BME280;15525;45.568;5.448;2024-02-21T07:03:10;98944.34;;;9.05;57.88
28267;BME280;15525;45.568;5.448;2024-02-21T07:05:35;98948.28;;;9.14;57.66
28267;BME280;15525;45.568;5.448;2024-02-21T07:08:01;98946.06;;;9.23;57.77
28267;BME280;15525;45.568;5.448;2024-02-21T07:10:27;98949.78;;;9.22;57.99
28267;BME280;15525;45.568;5.448;2024-02-21T07:12:54;98939.44;;;9.25;57.34
28267;BME280;15525;45.568;5.448;2024-02-21T07:15:19;98941.38;;;9.30;57.66
28267;BME280;15525;45.568;5.448;2024-02-21T07:17:45;98940.44;;;9.36;57.44
28267;BME280;15525;45.568;5.448;2024-02-21T07:20:10;98953.06;;;9.40;57.95
28267;BME280;15525;45.568;5.448;2024-02-21T07:22:36;98958.50;;;9.45;57.75
28267;BME280;15525;45.568;5.448;2024-02-21T07:25:01;98957.06;;;9.54;57.96
28267;BME280;15525;45.568;5.448;2024-02-21T07:27:27;98952.72;;;9.65;57.88
28267;BME280;15525;45.568;5.448;2024-02-21T07:29:56;98955.56;;;9.75;57.59
28267;BME280;15525;45.568;5.448;2024-02-21T07:32:21;98963.03;;;9.73;57.67
28267;BME280;15525;45.568;5.448;2024-02-21T07:34:46;98964.25;;;9.82;57.59
28267;BME280;15525;45.568;5.448;2024-02-21T07:37:12;98955.72;;;9.85;57.53
28267;BME280;15525;45.568;5.448;2024-02-21T07:39:37;98953.41;;;9.88;57.02
28267;BME280;15525;45.568;5.448;2024-02-21T07:42:03;98963.84;;;9.90;57.51
28267;BME280;15525;45.568;5.448;2024-02-21T07:44:28;98943.41;;;9.84;57.43
28267;BME280;15525;45.568;5.448;2024-02-21T07:46:54;98947.06;;;9.94;57.80
28267;BME280;15525;45.568;5.448;2024-02-21T07:49:19;98949.13;;;10.04;57.34
28267;BME280;15525;45.568;5.448;2024-02-21T07:51:44;98939.75;;;10.18;57.26
28267;BME280;15525;45.568;5.448;2024-02-21T07:54:10;98931.44;;;10.19;57.68
28267;BME280;15525;45.568;5.448;2024-02-21T07:56:35;98935.84;;;10.25;57.62
28267;BME280;15525;45.568;5.448;2024-02-21T07:59:00;98935.41;;;10.33;57.26
28267;BME280;15525;45.568;5.448;2024-02-21T08:01:26;98932.56;;;10.40;57.65
28267;BME280;15525;45.568;5.448;2024-02-21T08:03:51;98926.38;;;10.56;57.29
28267;BME280;15525;45.568;5.448;2024-02-21T08:06:17;98931.44;;;10.74;56.83
28267;BME280;15525;45.568;5.448;2024-02-21T08:08:42;98931.31;;;10.85;56.57
28267;BME280;15525;45.568;5.448;2024-02-21T08:11:07;98934.50;;;11.04;56.21
28267;BME280;15525;45.568;5.448;2024-02-21T08:13:33;98934.34;;;11.15;56.62
28267;BME280;15525;45.568;5.448;2024-02-21T08:15:58;98935.88;;;11.28;56.22
28267;BME280;15525;45.568;5.448;2024-02-21T08:18:23;98923.00;;;11.30;56.12
28267;BME280;15525;45.568;5.448;2024-02-21T08:20:49;98914.97;;;11.30;56.25
28267;BME280;15525;45.568;5.448;2024-02-21T08:23:18;98913.34;;;11.29;56.95
28267;BME280;15525;45.568;5.448;2024-02-21T08:25:44;98921.59;;;11.49;56.61
28267;BME280;15525;45.568;5.448;2024-02-21T08:28:09;98921.09;;;11.52;56.17
28267;BME280;15525;45.568;5.448;2024-02-21T08:30:35;98917.91;;;11.55;56.44
28267;BME280;15525;45.568;5.448;2024-02-21T08:33:00;98922.91;;;11.73;56.72
28267;BME280;15525;45.568;5.448;2024-02-21T08:35:25;98906.91;;;11.78;56.16
28267;BME280;15525;45.568;5.448;2024-02-21T08:37:51;98899.72;;;11.88;56.45
28267;BME280;15525;45.568;5.448;2024-02-21T08:40:16;98904.38;;;11.98;56.07
28267;BME280;15525;45.568;5.448;2024-02-21T08:42:47;98903.91;;;12.06;56.21
28267;BME280;15525;45.568;5.448;2024-02-21T08:45:13;98902.03;;;12.12;56.71
28267;BME280;15525;45.568;5.448;2024-02-21T08:47:41;98892.41;;;12.16;56.60
28267;BME280;15525;45.568;5.448;2024-02-21T08:50:08;98892.75;;;12.24;56.39
28267;BME280;15525;45.568;5.448;2024-02-21T08:52:35;98895.53;;;12.39;56.31
28267;BME280;15525;45.568;5.448;2024-02-21T08:55:00;98884.56;;;12.46;56.02
28267;BME280;15525;45.568;5.448;2024-02-21T08:57:26;98887.03;;;12.57;55.72
28267;BME280;15525;45.568;5.448;2024-02-21T08:59:52;98886.56;;;12.65;55.80
28267;BME280;15525;45.568;5.448;2024-02-21T09:02:17;98875.00;;;12.65;55.99
28267;BME280;15525;45.568;5.448;2024-02-21T09:04:42;98869.91;;;12.73;55.83
28267;BME280;15525;45.568;5.448;2024-02-21T09:07:09;98868.88;;;12.79;55.68
28267;BME280;15525;45.568;5.448;2024-02-21T09:09:35;98865.13;;;12.85;55.75
28267;BME280;15525;45.568;5.448;2024-02-21T09:12:00;98856.31;;;12.95;55.58
28267;BME280;15525;45.568;5.448;2024-02-21T09:14:36;98856.38;;;13.10;55.70
28267;BME280;15525;45.568;5.448;2024-02-21T09:17:03;98854.00;;;13.33;55.07
28267;BME280;15525;45.568;5.448;2024-02-21T09:19:29;98846.50;;;13.50;54.51
28267;BME280;15525;45.568;5.448;2024-02-21T09:21:54;98853.50;;;13.61;54.68
28267;BME280;15525;45.568;5.448;2024-02-21T09:24:20;98858.63;;;13.78;54.24
28267;BME280;15525;45.568;5.448;2024-02-21T09:26:45;98856.44;;;13.90;54.24
28267;BME280;15525;45.568;5.448;2024-02-21T09:29:11;98854.31;;;13.97;54.16
28267;BME280;15525;45.568;5.448;2024-02-21T09:31:36;98848.34;;;14.20;53.36
28267;BME280;15525;45.568;5.448;2024-02-21T09:34:04;98847.56;;;14.24;53.68
28267;BME280;15525;45.568;5.448;2024-02-21T09:36:30;98839.75;;;14.28;53.83
28267;BME280;15525;45.568;5.448;2024-02-21T09:38:55;98846.44;;;14.45;52.89
28267;BME280;15525;45.568;5.448;2024-02-21T09:41:25;98842.34;;;14.58;52.34
28267;BME280;15525;45.568;5.448;2024-02-21T09:43:53;98839.34;;;14.69;52.71
28267;BME280;15525;45.568;5.448;2024-02-21T09:46:50;98826.34;;;14.81;52.04
28267;BME280;15525;45.568;5.448;2024-02-21T09:51:51;98825.78;;;15.33;51.37
28267;BME280;15525;45.568;5.448;2024-02-21T09:54:19;98815.59;;;15.63;51.13
28267;BME280;15525;45.568;5.448;2024-02-21T09:56:46;98813.88;;;15.77;50.87
28267;BME280;15525;45.568;5.448;2024-02-21T09:59:16;98811.25;;;15.96;50.77
28267;BME280;15525;45.568;5.448;2024-02-21T10:01:42;98804.91;;;16.10;50.77
28267;BME280;15525;45.568;5.448;2024-02-21T10:04:09;98798.41;;;16.40;49.85
28267;BME280;15525;45.568;5.448;2024-02-21T10:06:35;98790.78;;;16.65;50.01
28267;BME280;15525;45.568;5.448;2024-02-21T10:09:03;98778.97;;;16.80;49.29
28267;BME280;15525;45.568;5.448;2024-02-21T10:11:28;98785.56;;;16.92;49.40
28267;BME280;15525;45.568;5.448;2024-02-21T10:14:07;98777.91;;;16.99;48.51
28267;BME280;15525;45.568;5.448;2024-02-21T10:16:33;98775.66;;;17.38;48.54
28267;BME280;15525;45.568;5.448;2024-02-21T10:18:59;98773.19;;;17.42;48.86
28267;BME280;15525;45.568;5.448;2024-02-21T10:21:24;98775.63;;;17.43;48.47
28267;BME280;15525;45.568;5.448;2024-02-21T10:23:51;98785.06;;;17.27;47.87
28267;BME280;15525;45.568;5.448;2024-02-21T10:26:18;98781.03;;;17.43;48.72
28267;BME280;15525;45.568;5.448;2024-02-21T10:28:44;98778.13;;;17.40;48.64
28267;BME280;15525;45.568;5.448;2024-02-21T10:31:11;98775.44;;;17.53;48.58
28267;BME280;15525;45.568;5.448;2024-02-21T10:33:53;98760.78;;;17.41;46.88
28267;BME280;15525;45.568;5.448;2024-02-21T10:36:19;98769.38;;;17.61;48.16
28267;BME280;15525;45.568;5.448;2024-02-21T10:38:44;98762.09;;;17.75;48.26
28267;BME280;15525;45.568;5.448;2024-02-21T10:41:14;98760.47;;;17.74;47.22
28267;BME280;15525;45.568;5.448;2024-02-21T10:43:40;98751.09;;;17.99;47.52
28267;BME280;15525;45.568;5.448;2024-02-21T10:46:09;98742.47;;;18.10;46.91
28267;BME280;15525;45.568;5.448;2024-02-21T10:48:43;98735.94;;;18.11;45.70
28267;BME280;15525;45.568;5.448;2024-02-21T10:51:17;98727.09;;;18.06;45.65
28267;BME280;15525;45.568;5.448;2024-02-21T10:56:30;98712.78;;;18.05;47.47
28267;BME280;15525;45.568;5.448;2024-02-21T10:59:07;98701.94;;;18.05;47.25
28267;BME280;15525;45.568;5.448;2024-02-21T11:01:33;98703.75;;;17.96;47.53
28267;BME280;15525;45.568;5.448;2024-02-21T11:04:05;98689.50;;;18.04;46.54
28267;BME280;15525;45.568;5.448;2024-02-21T11:06:32;98690.69;;;18.25;47.02
28267;BME280;15525;45.568;5.448;2024-02-21T11:09:06;98693.78;;;18.32;46.96
28267;BME280;15525;45.568;5.448;2024-02-21T11:11:36;98679.53;;;18.40;45.14
28267;BME280;15525;45.568;5.448;2024-02-21T11:14:19;98669.69;;;18.44;45.48
28267;BME280;15525;45.568;5.448;2024-02-21T11:16:45;98658.28;;;18.69;46.08
28267;BME280;15525;45.568;5.448;2024-02-21T11:19:27;98667.72;;;18.72;44.53
28267;BME280;15525;45.568;5.448;2024-02-21T11:21:54;98656.63;;;18.82;46.06
28267;BME280;15525;45.568;5.448;2024-02-21T11:24:30;98656.53;;;19.09;45.14
28267;BME280;15525;45.568;5.448;2024-02-21T11:27:07;98648.00;;;19.02;45.50
28267;BME280;15525;45.568;5.448;2024-02-21T11:29:33;98643.81;;;19.18;45.13
28267;BME280;15525;45.568;5.448;2024-02-21T11:31:58;98644.56;;;19.32;45.31
28267;BME280;15525;45.568;5.448;2024-02-21T11:34:23;98639.50;;;19.39;45.23
28267;BME280;15525;45.568;5.448;2024-02-21T11:36:50;98627.75;;;19.52;44.92
28267;BME280;15525;45.568;5.448;2024-02-21T11:39:23;98619.19;;;19.67;43.12
28267;BME280;15525;45.568;5.448;2024-02-21T11:44:29;98615.38;;;20.15;43.88
28267;BME280;15525;45.568;5.448;2024-02-21T11:46:54;98611.00;;;20.06;43.79
28267;BME280;15525;45.568;5.448;2024-02-21T11:49:20;98611.53;;;20.16;43.42
28267;BME280;15525;45.568;5.448;2024-02-21T11:51:46;98606.75;;;20.22;43.08
28267;BME280;15525;45.568;5.448;2024-02-21T11:54:12;98604.66;;;20.27;43.29
28267;BME280;15525;45.568;5.448;2024-02-21T11:56:41;98586.13;;;20.38;43.04
28267;BME280;15525;45.568;5.448;2024-02-21T11:59:06;98589.66;;;20.47;42.77
28267;BME280;15525;45.568;5.448;2024-02-21T12:01:32;98585.66;;;20.53;42.61
28267;BME280;15525;45.568;5.448;2024-02-21T12:03:57;98581.81;;;20.62;42.65
28267;BME280;15525;45.568;5.448;2024-02-21T12:06:23;98580.03;;;20.75;42.46
28267;BME280;15525;45.568;5.448;2024-02-21T12:08:48;98579.09;;;20.79;42.40
28267;BME280;15525;45.568;5.448;2024-02-21T12:11:22;98574.13;;;20.99;40.71
28267;BME280;15525;45.568;5.448;2024-02-21T12:16:27;98551.19;;;21.17;42.19
28267;BME280;15525;45.568;5.448;2024-02-21T12:18:54;98556.00;;;21.11;41.92
28267;BME280;15525;45.568;5.448;2024-02-21T12:21:24;98547.38;;;21.01;41.52
28267;BME280;15525;45.568;5.448;2024-02-21T12:23:49;98540.47;;;21.12;42.12
28267;BME280;15525;45.568;5.448;2024-02-21T12:26:14;98532.63;;;21.10;42.44
28267;BME280;15525;45.568;5.448;2024-02-21T12:28:40;98525.09;;;21.07;41.97
28267;BME280;15525;45.568;5.448;2024-02-21T12:31:05;98523.34;;;21.03;42.45
28267;BME280;15525;45.568;5.448;2024-02-21T12:33:31;98510.22;;;20.87;42.13
28267;BME280;15525;45.568;5.448;2024-02-21T12:35:58;98508.31;;;20.97;42.08
28267;BME280;15525;45.568;5.448;2024-02-21T12:38:23;98507.94;;;21.15;41.54
28267;BME280;15525;45.568;5.448;2024-02-21T12:40:49;98504.59;;;21.10;41.54
28267;BME280;15525;45.568;5.448;2024-02-21T12:43:14;98498.25;;;21.26;41.57
28267;BME280;15525;45.568;5.448;2024-02-21T12:45:39;98492.28;;;21.41;41.21
28267;BME280;15525;45.568;5.448;2024-02-21T12:48:05;98493.81;;;21.51;41.38
28267;BME280;15525;45.568;5.448;2024-02-21T12:50:30;98487.59;;;21.50;41.04
28267;BME280;15525;45.568;5.448;2024-02-21T12:52:56;98490.31;;;21.50;41.49
28267;BME280;15525;45.568;5.448;2024-02-21T12:55:23;98500.03;;;21.31;41.74
28267;BME280;15525;45.568;5.448;2024-02-21T12:57:49;98495.13;;;21.16;42.22
28267;BME280;15525;45.568;5.448;2024-02-21T13:00:14;98486.66;;;21.09;42.66
28267;BME280;15525;45.568;5.448;2024-02-21T13:02:40;98493.84;;;21.13;42.05
28267;BME280;15525;45.568;5.448;2024-02-21T13:05:06;98479.56;;;21.16;41.62
28267;BME280;15525;45.568;5.448;2024-02-21T13:07:32;98480.84;;;21.19;41.41
28267;BME280;15525;45.568;5.448;2024-02-21T13:09:58;98476.06;;;21.16;41.00
28267;BME280;15525;45.568;5.448;2024-02-21T13:12:24;98471.06;;;21.18;41.06